Time;durP1;ratioP1;P1;durP2;ratioP2;P2;SDS_P1;SDS_P2;PMS_P1;PMS_P2;Temp;Humidity;BMP_temperature;BMP_pressure;BME280_temperature;BME280_humidity;BME280_pressure;Samples;Min_cycle;Max_cycle;Signal;HPM_P1;HPM_P2
2023/07/27 00:00:11;;;;;;;4.68;1.63;;;;;;;17.20;75.63;98890.75;4987571;28;20116;-48
2023/07/27 00:02:38;;;;;;;2.03;1.45;;;;;;;17.21;75.06;98874.16;4983597;28;20054;-48
2023/07/27 00:05:05;;;;;;;2.22;0.95;;;;;;;17.21;75.80;98882.00;4984671;28;20046;-47
2023/07/27 00:07:32;;;;;;;2.03;0.80;;;;;;;17.22;75.82;98872.38;4983371;28;20411;-51
2023/07/27 00:09:58;;;;;;;4.43;1.65;;;;;;;17.25;75.75;98871.41;4981102;28;20414;-48
2023/07/27 00:12:25;;;;;;;4.10;1.35;;;;;;;17.25;75.82;98866.16;4985178;28;20046;-46
2023/07/27 00:14:51;;;;;;;1.23;0.95;;;;;;;17.25;75.40;98868.78;4983700;28;20058;-48
2023/07/27 00:17:18;;;;;;;2.80;0.77;;;;;;;17.25;75.59;98855.72;4987476;28;20189;-50
2023/07/27 00:19:45;;;;;;;2.40;0.60;;;;;;;17.24;75.61;98854.00;4988500;28;20058;-48
2023/07/27 00:22:12;;;;;;;1.88;1.02;;;;;;;17.24;75.18;98854.00;4984829;28;20056;-47
2023/07/27 00:24:38;;;;;;;4.10;1.33;;;;;;;17.25;75.46;98845.25;4985343;28;20054;-51
2023/07/27 00:27:05;;;;;;;4.88;1.80;;;;;;;17.26;75.47;98846.94;4981161;28;20128;-50
2023/07/27 00:29:32;;;;;;;4.35;1.27;;;;;;;17.25;75.79;98846.06;4984686;28;20057;-50
2023/07/27 00:31:59;;;;;;;2.45;1.92;;;;;;;17.26;75.84;98844.31;4984517;28;20097;-47
2023/07/27 00:34:25;;;;;;;4.53;1.30;;;;;;;17.26;75.17;98841.69;4987488;28;20046;-48
2023/07/27 00:36:52;;;;;;;7.00;1.70;;;;;;;17.25;75.06;98832.16;4984841;28;20054;-46
2023/07/27 00:39:20;;;;;;;6.38;1.52;;;;;;;17.26;75.12;98837.28;4989234;28;20121;-49
2023/07/27 00:41:46;;;;;;;4.93;1.80;;;;;;;17.27;74.98;98832.91;5019528;28;20050;-52
2023/07/27 00:44:13;;;;;;;3.33;1.10;;;;;;;17.29;74.89;98833.69;4986829;28;20042;-47
2023/07/27 00:46:40;;;;;;;2.92;1.08;;;;;;;17.30;75.20;98822.28;4985039;28;20502;-49
2023/07/27 00:49:07;;;;;;;3.72;1.95;;;;;;;17.29;75.10;98825.84;4989864;28;20121;-47
2023/07/27 00:51:35;;;;;;;3.45;1.92;;;;;;;17.30;75.40;98817.06;4985279;28;20497;-48
2023/07/27 00:54:03;;;;;;;6.13;3.00;;;;;;;17.28;75.04;98808.44;5016706;28;20422;-49
2023/07/27 00:56:32;;;;;;;4.32;1.75;;;;;;;17.27;75.75;98806.75;4985756;28;20052;-48
2023/07/27 00:59:00;;;;;;;4.22;2.17;;;;;;;17.25;75.54;98803.38;4984106;28;20053;-48
2023/07/27 01:01:27;;;;;;;4.45;2.00;;;;;;;17.26;75.93;98805.06;4981312;28;20054;-50
2023/07/27 01:03:54;;;;;;;6.32;1.25;;;;;;;17.27;75.79;98796.28;4985945;28;20102;-50
2023/07/27 01:06:21;;;;;;;4.15;1.83;;;;;;;17.27;75.50;98801.50;4982310;28;20046;-47
2023/07/27 01:08:48;;;;;;;6.20;2.63;;;;;;;17.27;76.11;98796.28;4984583;28;20445;-51
2023/07/27 01:14:17;;;;;;;1.73;1.00;;;;;;;17.20;75.92;98786.13;5070938;27;20936;-48
2023/07/27 01:16:51;;;;;;;4.20;2.72;;;;;;;17.24;75.96;98781.59;5025855;28;20046;-49
2023/07/27 01:22:24;;;;;;;6.05;1.75;;;;;;;17.53;76.62;98765.31;5096567;27;20390;-52
2023/07/27 01:32:59;;;;;;;4.30;2.05;;;;;;;17.27;76.37;98739.56;5047368;27;20405;-46
2023/07/27 01:35:38;;;;;;;5.28;2.55;;;;;;;17.25;76.47;98735.34;5043172;28;20075;-51
2023/07/27 01:38:07;;;;;;;4.43;2.47;;;;;;;17.24;76.83;98738.88;5040941;28;20059;-51
2023/07/27 01:40:34;;;;;;;3.80;2.08;;;;;;;17.24;76.08;98736.25;5041372;28;20053;-48
2023/07/27 01:43:02;;;;;;;4.07;2.97;;;;;;;17.23;76.46;98732.81;5041256;28;20053;-49
2023/07/27 01:45:28;;;;;;;2.90;1.92;;;;;;;17.24;76.52;98728.41;5040007;28;20049;-47
2023/07/27 01:47:57;;;;;;;2.47;0.90;;;;;;;17.24;75.67;98726.66;5063099;28;20433;-48
2023/07/27 01:50:24;;;;;;;3.50;2.22;;;;;;;17.24;76.96;98725.78;5043119;28;20045;-49
2023/07/27 01:52:52;;;;;;;2.03;1.60;;;;;;;17.24;76.55;98724.03;5037923;28;20080;-49
2023/07/27 01:55:22;;;;;;;3.55;1.58;;;;;;;17.24;77.01;98716.19;5039937;28;20056;-49
2023/07/27 01:57:50;;;;;;;2.40;2.20;;;;;;;17.23;76.54;98711.88;5038424;28;20408;-50
2023/07/27 02:00:17;;;;;;;1.88;1.77;;;;;;;17.25;76.67;98709.19;5058541;28;20067;-48
2023/07/27 02:02:44;;;;;;;1.70;1.58;;;;;;;17.24;76.36;98707.47;5064110;28;20566;-47
2023/07/27 02:05:11;;;;;;;1.38;1.27;;;;;;;17.23;76.33;98695.31;5059805;28;20132;-49
2023/07/27 02:07:38;;;;;;;4.05;1.75;;;;;;;17.23;76.24;98700.56;5064769;28;20176;-50
2023/07/27 02:10:05;;;;;;;2.38;2.28;;;;;;;17.23;76.33;98690.94;5055176;28;20532;-50
2023/07/27 02:12:47;;;;;;;3.33;1.75;;;;;;;17.23;76.57;98684.84;5040224;28;20041;-49
2023/07/27 02:15:21;;;;;;;5.68;2.70;;;;;;;17.21;76.62;98680.56;5044472;28;20128;-48
2023/07/27 02:17:53;;;;;;;3.20;2.45;;;;;;;17.23;77.16;98690.09;5039522;28;20049;-49
2023/07/27 02:20:22;;;;;;;2.67;1.67;;;;;;;17.23;76.33;98697.94;5036258;28;20061;-48
2023/07/27 02:22:50;;;;;;;2.15;2.05;;;;;;;17.23;76.15;98684.84;5037759;28;20128;-51
2023/07/27 02:25:18;;;;;;;3.08;1.63;;;;;;;17.23;77.19;98685.72;5037425;28;20723;-49
2023/07/27 02:27:45;;;;;;;2.35;2.25;;;;;;;17.24;77.06;98682.16;5040052;28;20049;-45
2023/07/27 02:30:12;;;;;;;2.42;1.55;;;;;;;17.26;76.68;98679.47;5039467;28;20132;-49
2023/07/27 02:32:38;;;;;;;2.05;1.85;;;;;;;17.26;76.42;98682.09;5036695;28;20061;-46
2023/07/27 02:35:05;;;;;;;1.70;1.60;;;;;;;17.25;76.45;98667.31;5036229;28;20045;-49
2023/07/27 02:37:32;;;;;;;1.55;1.45;;;;;;;17.24;76.53;98668.22;5037658;28;20056;-49
2023/07/27 02:39:59;;;;;;;1.27;1.20;;;;;;;17.23;76.49;98675.25;5039363;28;20049;-48
2023/07/27 02:42:25;;;;;;;2.78;1.60;;;;;;;17.24;76.56;98665.59;5032867;28;20045;-50
2023/07/27 02:44:52;;;;;;;2.10;1.95;;;;;;;17.23;76.45;98659.56;5022902;28;20049;-47
2023/07/27 02:47:18;;;;;;;1.73;1.38;;;;;;;17.23;76.73;98659.56;5023158;28;20049;-51
2023/07/27 02:49:45;;;;;;;0.45;0.38;;;;;;;17.24;76.76;98665.59;5025406;28;20619;-50
2023/07/27 02:52:12;;;;;;;1.67;0.57;;;;;;;17.24;76.58;98661.22;5024855;28;20442;-47
2023/07/27 02:54:38;;;;;;;1.77;1.67;;;;;;;17.25;77.22;98662.09;5021699;28;20065;-48
2023/07/27 02:57:05;;;;;;;2.25;1.15;;;;;;;17.28;77.18;98659.28;5025985;28;20049;-50
2023/07/27 02:59:32;;;;;;;2.17;2.00;;;;;;;17.28;76.88;98659.28;5027349;28;20049;-48
2023/07/27 03:01:58;;;;;;;1.73;1.38;;;;;;;17.29;76.70;98668.84;5023124;28;20057;-51
2023/07/27 03:04:25;;;;;;;3.00;1.48;;;;;;;17.30;76.56;98662.69;5026590;28;20077;-47
2023/07/27 03:06:52;;;;;;;2.10;1.50;;;;;;;17.31;76.26;98661.75;5023576;28;20049;-47
2023/07/27 03:09:18;;;;;;;2.50;1.50;;;;;;;17.32;76.54;98663.44;5022770;28;20057;-53
2023/07/27 03:11:45;;;;;;;1.92;1.83;;;;;;;17.33;76.66;98662.53;5026520;28;20052;-50
2023/07/27 03:14:12;;;;;;;1.80;0.40;;;;;;;17.34;76.54;98653.75;5050290;28;20457;-50
2023/07/27 03:16:38;;;;;;;5.13;1.95;;;;;;;17.33;76.66;98654.69;5068150;28;20048;-49
2023/07/27 03:19:05;;;;;;;2.25;1.95;;;;;;;17.33;76.63;98649.44;5068827;28;20591;-49
2023/07/27 03:21:32;;;;;;;1.40;1.30;;;;;;;17.33;76.26;98645.03;5060332;28;20050;-49
2023/07/27 03:23:58;;;;;;;4.43;1.73;;;;;;;17.35;76.40;98647.56;5064098;28;20041;-48
2023/07/27 03:26:25;;;;;;;3.25;1.85;;;;;;;17.35;76.80;98639.72;5066070;28;20126;-49
2023/07/27 03:28:52;;;;;;;1.98;1.60;;;;;;;17.36;76.49;98643.19;5065622;28;20057;-49
2023/07/27 03:31:20;;;;;;;2.15;1.42;;;;;;;17.36;77.37;98649.25;5066728;28;20044;-50
2023/07/27 03:33:48;;;;;;;2.15;1.50;;;;;;;17.36;77.47;98643.19;5062400;28;20097;-51
2023/07/27 03:36:17;;;;;;;4.63;2.00;;;;;;;17.37;76.64;98647.50;5066192;28;20067;-51
2023/07/27 03:38:44;;;;;;;2.05;1.95;;;;;;;17.40;77.24;98648.19;5062871;28;20064;-49
2023/07/27 03:41:11;;;;;;;1.83;1.45;;;;;;;17.39;77.32;98651.72;5064258;28;20063;-49
2023/07/27 03:43:38;;;;;;;2.65;1.88;;;;;;;17.38;76.89;98652.66;5064580;28;20051;-48
2023/07/27 03:46:05;;;;;;;2.88;2.08;;;;;;;17.41;76.90;98655.09;5067693;28;20048;-48
2023/07/27 03:48:32;;;;;;;3.13;1.85;;;;;;;17.40;77.19;98656.03;5061837;28;20175;-48
2023/07/27 03:51:00;;;;;;;1.63;1.52;;;;;;;17.41;76.67;98652.50;5068282;28;20570;-49
2023/07/27 03:53:28;;;;;;;3.35;2.38;;;;;;;17.43;77.26;98655.03;5063698;28;20057;-48
2023/07/27 03:55:55;;;;;;;2.58;2.38;;;;;;;17.44;76.96;98662.81;5057866;28;20041;-47
2023/07/27 03:58:22;;;;;;;1.75;1.55;;;;;;;17.43;77.44;98661.09;5062605;28;20048;-51
2023/07/27 04:00:48;;;;;;;1.90;1.70;;;;;;;17.44;77.26;98657.56;5062331;28;20052;-49
2023/07/27 04:03:15;;;;;;;2.90;2.33;;;;;;;17.43;77.10;98655.84;5063757;28;20166;-48
2023/07/27 04:05:42;;;;;;;2.13;1.92;;;;;;;17.43;76.92;98661.09;5065584;28;20057;-47
2023/07/27 04:08:10;;;;;;;2.47;1.88;;;;;;;17.45;77.22;98661.00;5062684;28;20162;-48
2023/07/27 04:10:38;;;;;;;3.72;1.80;;;;;;;17.45;76.75;98658.38;5062475;28;20162;-49
2023/07/27 04:13:05;;;;;;;2.80;2.60;;;;;;;17.44;77.54;98662.81;5064304;28;20357;-49
2023/07/27 04:15:33;;;;;;;2.63;2.35;;;;;;;17.46;77.58;98670.53;5064934;28;20052;-48
2023/07/27 04:18:00;;;;;;;3.63;2.50;;;;;;;17.46;77.60;98665.31;5063006;28;20048;-50
2023/07/27 04:20:27;;;;;;;2.50;2.22;;;;;;;17.50;77.39;98669.47;5066745;28;20570;-52
2023/07/27 04:22:53;;;;;;;2.95;2.63;;;;;;;17.51;77.88;98673.78;5068452;28;20060;-51
2023/07/27 04:25:20;;;;;;;4.47;2.15;;;;;;;17.52;78.09;98669.38;5064863;28;20659;-50
2023/07/27 04:27:49;;;;;;;2.47;2.05;;;;;;;17.54;77.25;98672.75;5062543;28;20143;-48
2023/07/27 04:30:15;;;;;;;2.63;2.25;;;;;;;17.54;77.22;98662.28;5063755;28;20044;-53
2023/07/27 04:32:42;;;;;;;2.42;2.00;;;;;;;17.54;77.15;98662.28;5062560;28;20119;-50
2023/07/27 04:35:09;;;;;;;2.13;1.88;;;;;;;17.58;77.24;98674.28;5069783;28;20438;-47
2023/07/27 04:37:35;;;;;;;2.40;2.20;;;;;;;17.58;77.44;98669.03;5066444;28;20057;-49
2023/07/27 04:40:05;;;;;;;2.33;2.08;;;;;;;17.60;77.73;98661.97;5061858;28;20495;-51
2023/07/27 04:42:31;;;;;;;3.78;2.33;;;;;;;17.61;77.69;98674.13;5066106;28;20051;-48
2023/07/27 04:44:58;;;;;;;3.28;2.42;;;;;;;17.62;77.95;98673.19;5067190;28;20056;-48
2023/07/27 04:47:26;;;;;;;3.95;2.08;;;;;;;17.62;77.35;98669.75;5062822;28;20049;-47
2023/07/27 04:49:53;;;;;;;3.60;2.28;;;;;;;17.64;77.71;98673.97;5061235;28;20044;-48
2023/07/27 04:52:20;;;;;;;3.25;2.83;;;;;;;17.65;77.61;98680.88;5067095;28;20048;-51
2023/07/27 04:54:46;;;;;;;5.95;2.50;;;;;;;17.66;77.51;98679.94;5067735;28;20052;-48
2023/07/27 04:57:13;;;;;;;3.63;2.78;;;;;;;17.68;77.55;98670.25;5062916;28;20488;-51
2023/07/27 04:59:39;;;;;;;3.38;2.90;;;;;;;17.68;77.56;98667.63;5061528;28;20059;-52
2023/07/27 05:02:06;;;;;;;4.32;2.60;;;;;;;17.69;77.35;98666.69;5066447;28;20059;-49
2023/07/27 05:04:33;;;;;;;4.78;2.75;;;;;;;17.70;78.48;98668.38;5065042;28;20060;-48
2023/07/27 05:06:59;;;;;;;3.08;1.65;;;;;;;17.73;77.83;98664.75;5060398;28;20703;-49
2023/07/27 05:09:26;;;;;;;3.28;2.53;;;;;;;17.73;78.35;98657.75;5064259;28;20052;-51
2023/07/27 05:11:52;;;;;;;3.10;2.47;;;;;;;17.76;77.65;98663.75;5064030;28;20045;-52
2023/07/27 05:14:19;;;;;;;2.85;2.30;;;;;;;17.77;78.33;98665.44;5064680;28;20045;-50
2023/07/27 05:16:45;;;;;;;5.70;3.17;;;;;;;17.80;77.61;98667.88;5060511;28;20501;-50
2023/07/27 05:19:12;;;;;;;3.95;2.60;;;;;;;17.80;78.23;98667.88;5043847;28;20061;-48
2023/07/27 05:21:39;;;;;;;4.28;3.30;;;;;;;17.82;77.81;98660.78;5060896;28;20096;-49
2023/07/27 05:24:05;;;;;;;4.28;2.63;;;;;;;17.85;78.59;98665.84;5061446;28;20056;-50
2023/07/27 05:26:32;;;;;;;4.88;2.40;;;;;;;17.88;77.86;98673.53;5060393;28;20664;-51
2023/07/27 05:29:00;;;;;;;5.45;2.83;;;;;;;17.91;78.08;98681.25;5067858;28;20048;-50
2023/07/27 05:31:27;;;;;;;5.32;3.13;;;;;;;17.93;78.20;98674.13;5060714;28;20055;-53
2023/07/27 05:33:55;;;;;;;4.85;2.22;;;;;;;17.94;78.16;98673.19;5068693;28;20052;-48
2023/07/27 05:36:21;;;;;;;4.97;2.63;;;;;;;17.96;78.55;98676.59;5067515;28;20068;-50
2023/07/27 05:38:48;;;;;;;2.72;1.35;;;;;;;17.98;77.91;98677.34;5064892;28;20428;-48
2023/07/27 05:41:15;;;;;;;3.90;3.47;;;;;;;18.01;78.17;98678.09;5062770;28;20045;-49
2023/07/27 05:43:41;;;;;;;5.55;3.00;;;;;;;18.04;78.45;98672.69;5066388;28;20077;-51
2023/07/27 05:46:08;;;;;;;5.15;3.00;;;;;;;18.06;78.11;98683.91;5064816;28;20048;-48
2023/07/27 05:48:34;;;;;;;3.47;2.88;;;;;;;18.06;78.46;98674.28;5065994;28;20217;-53
2023/07/27 05:51:01;;;;;;;4.30;3.30;;;;;;;18.09;78.57;98683.78;5064865;28;20068;-46
2023/07/27 05:53:28;;;;;;;3.90;3.58;;;;;;;18.10;78.26;98678.47;5066720;28;20053;-52
2023/07/27 05:55:55;;;;;;;3.10;2.47;;;;;;;18.11;77.85;98671.44;5065362;28;20041;-48
2023/07/27 05:58:21;;;;;;;3.83;2.72;;;;;;;18.14;77.98;98662.56;5054958;28;20049;-48
2023/07/27 06:00:59;;;;;;;3.35;2.17;;;;;;;18.14;77.75;98665.19;5062940;28;20071;-48
2023/07/27 06:03:27;;;;;;;3.35;3.05;;;;;;;18.19;78.31;98668.38;5065631;28;20052;-47
2023/07/27 06:05:53;;;;;;;3.28;2.20;;;;;;;18.20;78.34;98670.06;5062793;28;20044;-50
2023/07/27 06:08:20;;;;;;;4.43;3.15;;;;;;;18.23;78.78;98670.75;5066734;28;20044;-51
2023/07/27 06:10:47;;;;;;;3.30;2.65;;;;;;;18.26;78.05;98668.88;5067855;28;20049;-51
2023/07/27 06:13:14;;;;;;;4.93;3.00;;;;;;;18.30;78.71;98665.19;5063739;28;20052;-51
2023/07/27 06:15:49;;;;;;;4.28;3.20;;;;;;;18.33;78.53;98680.69;5061612;28;20044;-50
2023/07/27 06:18:15;;;;;;;4.35;2.67;;;;;;;18.36;78.49;98675.28;5065849;28;20532;-51
2023/07/27 06:20:42;;;;;;;4.00;2.55;;;;;;;18.38;78.47;98678.69;5069738;28;20040;-48
2023/07/27 06:23:09;;;;;;;2.90;2.40;;;;;;;18.40;78.51;98682.03;5073299;28;20047;-51
2023/07/27 06:25:35;;;;;;;4.70;2.90;;;;;;;18.43;78.25;98679.25;5068502;28;20056;-50
2023/07/27 06:28:02;;;;;;;4.60;2.45;;;;;;;18.45;78.99;98680.03;5062242;28;20048;-49
2023/07/27 06:30:29;;;;;;;2.65;2.35;;;;;;;18.46;78.43;98676.47;5063453;28;20048;-50
2023/07/27 06:32:56;;;;;;;2.83;2.63;;;;;;;18.50;78.59;98670.09;5067453;28;20056;-50
2023/07/27 06:35:24;;;;;;;4.18;2.50;;;;;;;18.54;78.35;98667.31;5065488;28;20052;-49
2023/07/27 06:37:52;;;;;;;4.50;2.50;;;;;;;18.56;78.69;98670.66;5068226;28;20056;-49
2023/07/27 06:40:19;;;;;;;2.78;2.40;;;;;;;18.59;78.43;98675.75;5066515;28;20071;-50
2023/07/27 06:42:45;;;;;;;2.80;2.50;;;;;;;18.63;78.73;98674.63;5066652;28;20045;-53
2023/07/27 06:45:12;;;;;;;3.05;2.67;;;;;;;18.69;78.37;98676.06;5064863;28;20055;-48
2023/07/27 06:47:39;;;;;;;2.88;2.63;;;;;;;18.72;78.44;98671.50;5070091;28;20122;-51
2023/07/27 06:50:06;;;;;;;2.03;0.98;;;;;;;18.78;78.39;98682.53;5066631;28;20491;-51
2023/07/27 06:52:33;;;;;;;2.17;1.98;;;;;;;18.83;78.94;98683.09;5068803;28;20044;-51
2023/07/27 06:55:00;;;;;;;3.63;2.17;;;;;;;18.88;78.25;98681.06;5070202;28;20387;-50
2023/07/27 06:57:26;;;;;;;3.03;2.13;;;;;;;18.93;78.55;98668.50;5070122;28;20133;-48
2023/07/27 06:59:53;;;;;;;3.17;2.97;;;;;;;18.98;78.48;98679.56;5068414;28;20056;-50
2023/07/27 07:02:20;;;;;;;2.92;1.83;;;;;;;19.02;78.33;98678.44;5066601;28;20433;-49
2023/07/27 07:04:47;;;;;;;2.20;1.80;;;;;;;19.07;78.48;98674.72;5069078;28;20052;-50
2023/07/27 07:07:14;;;;;;;2.08;1.60;;;;;;;19.13;78.63;98679.63;5069509;28;20133;-47
2023/07/27 07:09:40;;;;;;;3.55;2.38;;;;;;;19.22;78.23;98671.19;5068978;28;20040;-47
2023/07/27 07:12:08;;;;;;;2.97;2.67;;;;;;;19.42;78.53;98674.38;5064939;28;20063;-48
2023/07/27 07:14:34;;;;;;;3.60;2.20;;;;;;;19.56;78.76;98684.03;5065688;28;20075;-50
2023/07/27 07:17:01;;;;;;;4.20;2.60;;;;;;;19.76;78.69;98672.25;5066846;28;20058;-48
2023/07/27 07:19:28;;;;;;;3.05;2.47;;;;;;;19.99;78.50;98677.88;5067022;28;20091;-51
2023/07/27 07:21:55;;;;;;;2.78;2.15;;;;;;;20.19;78.16;98678.38;5059819;28;20056;-48
2023/07/27 07:24:21;;;;;;;2.58;2.38;;;;;;;20.25;77.47;98687.63;5063307;28;20047;-52
2023/07/27 07:26:48;;;;;;;4.22;2.42;;;;;;;20.28;77.02;98683.03;5059622;28;20049;-47
2023/07/27 07:29:15;;;;;;;2.28;2.08;;;;;;;20.30;77.61;98675.06;5057614;28;20136;-50
2023/07/27 07:31:41;;;;;;;1.67;1.33;;;;;;;20.34;76.71;98686.22;5059670;28;20078;-48
2023/07/27 07:34:08;;;;;;;2.38;2.25;;;;;;;20.41;77.00;98685.69;5058358;28;20063;-51
2023/07/27 07:36:35;;;;;;;2.58;2.35;;;;;;;20.47;76.97;98687.06;5061013;28;20057;-52
2023/07/27 07:39:01;;;;;;;1.70;1.52;;;;;;;20.52;76.50;98679.75;5059498;28;20071;-51
2023/07/27 07:41:28;;;;;;;2.50;2.30;;;;;;;20.67;77.14;98700.72;5060702;28;20530;-53
2023/07/27 07:43:55;;;;;;;2.72;1.88;;;;;;;20.89;76.30;98694.03;5057357;28;20548;-50
2023/07/27 07:46:22;;;;;;;2.25;2.15;;;;;;;20.97;75.82;98694.34;5059651;28;20578;-50
2023/07/27 07:48:48;;;;;;;2.05;1.83;;;;;;;21.12;76.03;98687.22;5057021;28;20084;-49
2023/07/27 07:51:15;;;;;;;1.20;0.40;;;;;;;21.30;75.20;98685.09;5056191;28;20451;-47
2023/07/27 07:53:42;;;;;;;2.03;1.92;;;;;;;21.42;74.83;98687.81;5055959;28;20052;-48
2023/07/27 07:56:13;;;;;;;2.35;1.55;;;;;;;21.60;74.68;98685.69;5058953;28;20466;-50
2023/07/27 07:58:40;;;;;;;2.92;2.13;;;;;;;21.95;75.28;98692.03;5055523;28;20989;-50
2023/07/27 08:01:07;;;;;;;1.20;0.85;;;;;;;22.24;74.80;98686.44;5056640;28;20621;-52
2023/07/27 08:03:34;;;;;;;3.55;1.33;;;;;;;22.43;74.72;98683.28;5055939;28;20040;-50
2023/07/27 08:06:01;;;;;;;2.15;1.95;;;;;;;22.80;74.54;98692.91;5060625;28;20702;-48
2023/07/27 08:08:27;;;;;;;2.53;2.10;;;;;;;22.99;72.69;98691.50;5048544;28;20052;-50
2023/07/27 08:11:01;;;;;;;0.75;0.40;;;;;;;22.95;72.16;98695.34;5056360;28;20556;-49
2023/07/27 08:13:27;;;;;;;3.25;2.05;;;;;;;22.94;71.77;98696.31;5055656;28;20057;-47
2023/07/27 08:15:54;;;;;;;2.63;2.53;;;;;;;22.99;72.29;98694.16;5059181;28;20045;-48
2023/07/27 08:18:21;;;;;;;2.45;2.25;;;;;;;23.19;71.81;98689.97;5061617;28;20045;-54
2023/07/27 08:20:58;;;;;;;2.15;2.05;;;;;;;23.45;72.13;98694.22;5063271;28;20049;-47
2023/07/27 08:23:25;;;;;;;2.90;2.72;;;;;;;23.75;71.20;98704.16;5064477;28;20068;-50
2023/07/27 08:25:53;;;;;;;2.60;2.10;;;;;;;23.99;70.24;98702.31;5062553;28;20569;-51
2023/07/27 08:28:20;;;;;;;4.28;1.88;;;;;;;24.08;69.78;98712.16;5058678;28;20500;-50
2023/07/27 08:30:48;;;;;;;2.15;1.95;;;;;;;24.11;70.19;98701.34;5062595;28;20511;-50
2023/07/27 08:33:15;;;;;;;1.48;0.77;;;;;;;24.30;70.21;98707.81;5057334;28;20393;-51
2023/07/27 08:35:42;;;;;;;2.35;1.33;;;;;;;24.35;68.81;98707.44;5056653;28;20169;-50
2023/07/27 08:38:09;;;;;;;1.67;1.58;;;;;;;24.26;67.89;98703.72;5059520;28;20040;-48
2023/07/27 08:40:38;;;;;;;1.90;1.80;;;;;;;24.39;68.77;98708.84;5058993;28;20052;-53
2023/07/27 08:43:07;;;;;;;1.55;1.45;;;;;;;24.50;67.68;98700.03;5058126;28;20056;-50
2023/07/27 08:45:36;;;;;;;1.58;1.48;;;;;;;24.35;66.93;98702.16;5054083;28;20052;-51
2023/07/27 08:48:04;;;;;;;1.00;1.00;;;;;;;24.21;66.59;98695.34;5058969;28;20512;-52
2023/07/27 08:50:31;;;;;;;1.80;1.70;;;;;;;24.06;66.72;98703.53;5064101;28;20060;-50
2023/07/27 08:52:58;;;;;;;1.08;1.08;;;;;;;24.05;66.67;98709.78;5069134;28;20407;-49
2023/07/27 08:55:25;;;;;;;2.28;1.67;;;;;;;24.08;66.71;98706.03;5066462;28;20139;-50
2023/07/27 08:57:52;;;;;;;1.08;1.08;;;;;;;23.99;65.90;98702.31;5067165;28;20404;-49
2023/07/27 09:00:18;;;;;;;1.05;1.05;;;;;;;23.96;66.27;98710.50;5069376;28;20040;-51
2023/07/27 09:02:45;;;;;;;1.38;1.35;;;;;;;23.92;65.92;98709.06;5062189;28;20065;-51
2023/07/27 09:05:13;;;;;;;1.85;1.33;;;;;;;24.02;67.20;98707.38;5065778;28;20105;-50
2023/07/27 09:07:40;;;;;;;1.52;1.30;;;;;;;24.12;66.04;98697.75;5064940;28;20083;-53
2023/07/27 09:10:09;;;;;;;1.88;1.77;;;;;;;24.12;65.56;98713.63;5066994;28;20121;-47
2023/07/27 09:12:36;;;;;;;2.03;1.92;;;;;;;24.10;65.72;98718.16;5062952;28;20063;-50
2023/07/27 09:15:12;;;;;;;1.58;1.27;;;;;;;24.10;64.77;98715.53;5066875;28;20140;-51
2023/07/27 09:17:39;;;;;;;1.92;1.17;;;;;;;24.23;66.10;98715.41;5065068;28;20504;-49
2023/07/27 09:20:12;;;;;;;2.33;1.88;;;;;;;24.30;65.66;98715.75;5062308;28;20048;-49
2023/07/27 09:22:38;;;;;;;2.85;0.73;;;;;;;24.26;65.30;98735.47;5064306;28;20502;-50
2023/07/27 09:25:06;;;;;;;2.20;1.70;;;;;;;24.19;65.08;98734.28;5066175;28;20036;-49
2023/07/27 09:27:43;;;;;;;2.05;1.63;;;;;;;24.06;65.04;98735.25;5071125;28;20044;-53
2023/07/27 09:30:12;;;;;;;1.55;1.45;;;;;;;23.97;65.38;98730.69;5065962;28;20308;-50
2023/07/27 09:32:38;;;;;;;1.67;1.58;;;;;;;23.93;65.44;98731.91;5064866;28;20118;-52
2023/07/27 09:35:06;;;;;;;1.85;1.75;;;;;;;23.94;65.26;98736.25;5065748;28;20614;-51
2023/07/27 09:37:33;;;;;;;1.73;1.63;;;;;;;23.99;64.75;98723.47;5069760;28;20070;-51
2023/07/27 09:40:08;;;;;;;1.90;1.80;;;;;;;24.24;65.35;98732.09;5065113;28;20113;-52
2023/07/27 09:42:35;;;;;;;1.35;1.25;;;;;;;24.43;64.79;98726.16;5066240;28;20059;-52
2023/07/27 09:45:02;;;;;;;1.55;1.45;;;;;;;24.57;64.20;98732.97;5056749;28;20052;-50
2023/07/27 09:47:31;;;;;;;1.63;0.95;;;;;;;24.58;64.16;98734.63;5062570;28;20041;-49
2023/07/27 09:50:00;;;;;;;1.85;1.75;;;;;;;24.51;63.87;98738.75;5060725;28;20114;-50
2023/07/27 09:52:28;;;;;;;1.90;0.50;;;;;;;24.43;63.66;98746.47;5061918;28;20471;-48
2023/07/27 09:54:56;;;;;;;2.13;1.92;;;;;;;24.33;63.75;98747.25;5067159;28;20053;-52
2023/07/27 09:57:24;;;;;;;1.83;1.73;;;;;;;24.24;64.08;98745.31;5071140;28;20160;-50
2023/07/27 09:59:51;;;;;;;1.88;1.75;;;;;;;24.17;64.15;98741.50;5066892;28;20067;-52
2023/07/27 10:02:20;;;;;;;1.55;1.45;;;;;;;24.09;64.39;98740.31;5064068;28;20056;-50
2023/07/27 10:04:57;;;;;;;1.55;1.45;;;;;;;24.06;63.93;98729.97;5059952;28;20044;-53
2023/07/27 10:07:26;;;;;;;1.80;1.67;;;;;;;24.03;63.94;98730.19;5070844;28;20055;-51
2023/07/27 10:10:24;;;;;;;2.50;1.85;;;;;;;23.93;63.26;98731.91;5069120;28;20129;-51
2023/07/27 10:12:51;;;;;;;2.13;2.00;;;;;;;23.95;63.29;98727.34;5067263;28;20562;-48
2023/07/27 10:17:58;;;;;;;0.40;0.30;;;;;;;24.00;63.20;98730.44;5019669;27;20406;-51
2023/07/27 10:20:28;;;;;;;0.43;0.43;;;;;;;24.13;62.80;98736.47;5019542;28;20664;-48
2023/07/27 10:23:20;;;;;;;0.40;0.40;;;;;;;24.19;61.85;98726.34;5007816;28;20049;-51
2023/07/27 10:31:25;;;;;;;0.52;0.50;;;;;;;24.30;62.04;98731.59;5055050;27;20397;-51
2023/07/27 10:39:42;;;;;;;0.88;0.88;;;;;;;24.50;61.72;98737.06;5006175;27;20407;-53
2023/07/27 10:42:12;;;;;;;1.60;1.50;;;;;;;24.52;61.97;98741.28;5015105;28;20046;-51
2023/07/27 10:49:54;;;;;;;0.30;0.20;;;;;;;24.92;61.52;98731.00;5041210;27;20394;-50
2023/07/27 10:52:24;;;;;;;1.05;0.30;;;;;;;25.10;61.68;98739.22;5021471;28;20041;-49
2023/07/27 10:54:53;;;;;;;0.40;0.40;;;;;;;25.29;61.26;98737.63;5019618;28;20057;-52
2023/07/27 10:57:20;;;;;;;1.88;1.13;;;;;;;25.56;62.52;98738.88;5019790;28;20048;-49
2023/07/27 10:59:49;;;;;;;0.80;0.80;;;;;;;25.86;62.23;98736.34;5019417;28;20055;-53
2023/07/27 11:02:22;;;;;;;1.55;0.20;;;;;;;26.13;61.18;98740.19;5018656;28;20103;-52
2023/07/27 11:04:51;;;;;;;0.70;0.40;;;;;;;26.22;59.42;98743.84;5018397;28;20053;-51
2023/07/27 11:07:37;;;;;;;1.02;0.40;;;;;;;26.28;59.13;98744.16;5019138;28;20058;-55
2023/07/27 11:15:26;;;;;;;0.80;0.80;;;;;;;26.29;58.06;98734.38;5008229;27;20769;-53
2023/07/27 11:17:54;;;;;;;0.50;0.25;;;;;;;26.38;57.86;98738.84;4980332;28;20049;-47
2023/07/27 11:20:24;;;;;;;1.13;0.50;;;;;;;26.50;57.54;98731.59;4979832;28;20739;-49
2023/07/27 11:22:52;;;;;;;0.50;0.50;;;;;;;26.53;57.25;98735.78;4998434;28;20049;-49
2023/07/27 11:25:19;;;;;;;0.68;0.45;;;;;;;26.53;57.12;98735.78;4969372;28;20410;-49
2023/07/27 11:27:49;;;;;;;0.40;0.32;;;;;;;26.56;56.64;98746.13;5000476;28;20046;-50
2023/07/27 11:30:21;;;;;;;1.20;0.50;;;;;;;26.52;56.45;98744.75;4999682;28;20050;-49
2023/07/27 11:32:58;;;;;;;0.70;0.50;;;;;;;26.54;56.69;98730.34;4980887;28;20487;-49
2023/07/27 11:35:25;;;;;;;0.30;0.30;;;;;;;26.71;56.92;98737.75;5015735;28;20414;-50
2023/07/27 11:37:51;;;;;;;2.75;0.60;;;;;;;26.81;55.60;98725.28;5001509;28;20526;-53
2023/07/27 11:40:19;;;;;;;1.42;0.50;;;;;;;26.90;56.27;98727.09;4994842;28;20056;-52
2023/07/27 11:42:46;;;;;;;0.30;0.22;;;;;;;26.94;55.27;98728.50;4999756;28;20131;-53
2023/07/27 11:45:14;;;;;;;0.40;0.40;;;;;;;26.94;55.45;98730.31;5000447;28;20482;-50
2023/07/27 11:47:40;;;;;;;0.60;0.60;;;;;;;27.03;55.35;98741.94;4981721;28;20058;-50
2023/07/27 11:50:09;;;;;;;1.05;0.50;;;;;;;27.07;54.19;98732.69;4999507;28;20054;-51
2023/07/27 11:52:37;;;;;;;0.57;0.57;;;;;;;27.02;53.48;98734.94;4995069;28;20062;-51
2023/07/27 11:55:05;;;;;;;1.85;0.63;;;;;;;26.94;53.95;98731.16;4993223;28;20050;-53
2023/07/27 11:57:32;;;;;;;0.60;0.60;;;;;;;26.95;54.26;98732.00;4997924;28;20513;-50
2023/07/27 12:02:40;;;;;;;0.90;0.90;;;;;;;27.19;52.14;98731.53;5046235;27;20413;-51
2023/07/27 12:05:12;;;;;;;1.77;1.50;;;;;;;26.99;53.09;98735.22;5019369;28;20176;-49
2023/07/27 12:07:40;;;;;;;1.48;1.35;;;;;;;26.93;53.45;98739.25;5021096;28;20051;-48
2023/07/27 12:10:12;;;;;;;1.33;1.23;;;;;;;26.86;53.68;98741.66;5004408;28;20050;-51
2023/07/27 12:13:03;;;;;;;1.98;1.88;;;;;;;26.69;53.73;98736.06;5002296;28;20101;-52
2023/07/27 12:15:35;;;;;;;0.60;0.30;;;;;;;26.68;54.17;98737.03;5006581;28;20399;-52
2023/07/27 12:18:04;;;;;;;1.27;1.17;;;;;;;26.67;54.02;98740.69;5001091;28;20049;-50